CSAPA EDMD-EDNX
Flight info
| Callsign | CSAPA |
|---|---|
| Flight time | 0h 14m |
| Altitude | 2500 |
| Route | EDMD DACHAU HACKERMOOS EDNX |
| Aircraft | C152/L-V/N |
Departure
| Time | 2026-04-30 17:56 |
|---|---|
| Airport | Dachau-Gröbenried Airfield (EDMD) |
Arrival
| Time | 2026-04-30 18:11 |
|---|---|
| Airport | Schleissheim Airfield (EDNX) |
| Time | Latitude | Longitude | Altitude | Speed | Heading |
|---|---|---|---|---|---|
| 2026-04-30 17:54 | 48.22766 | 11.42860 | 1611 ft | 0 kts | 6° |
| 2026-04-30 17:55 | 48.22878 | 11.42169 | 1639 ft | 67 kts | 281° |
| 2026-04-30 17:56 | 48.24368 | 11.40193 | 2298 ft | 85 kts | 354° |
| 2026-04-30 17:57 | 48.26248 | 11.40274 | 2531 ft | 99 kts | 1° |
| 2026-04-30 17:58 | 48.28360 | 11.40463 | 2567 ft | 102 kts | 5° |
| 2026-04-30 17:59 | 48.31235 | 11.40798 | 2484 ft | 104 kts | 3° |
| 2026-04-30 18:00 | 48.34108 | 11.40956 | 2452 ft | 102 kts | 360° |
| 2026-04-30 18:00 | 48.36248 | 11.40810 | 2480 ft | 108 kts | 354° |
| 2026-04-30 18:01 | 48.37753 | 11.40609 | 2504 ft | 104 kts | 356° |
| 2026-04-30 18:02 | 48.39665 | 11.40495 | 2484 ft | 103 kts | 358° |
| 2026-04-30 18:02 | 48.39910 | 11.41460 | 2410 ft | 106 kts | 187° |
| 2026-04-30 18:03 | 48.37855 | 11.42301 | 2352 ft | 100 kts | 157° |
| 2026-04-30 18:04 | 48.36003 | 11.43669 | 2463 ft | 100 kts | 157° |
| 2026-04-30 18:05 | 48.33525 | 11.45352 | 2584 ft | 94 kts | 149° |
| 2026-04-30 18:06 | 48.31295 | 11.47344 | 2519 ft | 93 kts | 149° |
| 2026-04-30 18:07 | 48.29093 | 11.49407 | 2451 ft | 94 kts | 150° |
| 2026-04-30 18:08 | 48.27321 | 11.50279 | 2407 ft | 93 kts | 193° |
| 2026-04-30 18:09 | 48.24825 | 11.50966 | 2367 ft | 92 kts | 160° |
| 2026-04-30 18:10 | 48.23486 | 11.53392 | 2006 ft | 75 kts | 82° |
| 2026-04-30 18:11 | 48.23917 | 11.56085 | 1599 ft | 23 kts | 77° |
| 2026-04-30 18:11 | 48.23890 | 11.55939 | 1599 ft | 14 kts | 255° |
| 2026-04-30 18:13 | 48.23769 | 11.55181 | 1599 ft | 6 kts | 210° |
| 2026-04-30 18:14 | 48.23655 | 11.55199 | 1599 ft | 7 kts | 152° |
| 2026-04-30 18:15 | 48.23621 | 11.55282 | 1599 ft | 2 kts | 27° |
| 2026-04-30 18:15 | 48.23665 | 11.55298 | 1599 ft | 0 kts | 293° |
| 2026-04-30 18:17 | 48.23665 | 11.55297 | 1599 ft | 0 kts | 293° |